createdAt,value
2023-08-04T00:01:57.021Z,3.55
2023-08-04T00:04:24.409Z,3.40
2023-08-04T00:06:53.636Z,1.65
2023-08-04T00:09:21.079Z,2.17
2023-08-04T00:11:48.489Z,1.05
2023-08-04T00:14:16.153Z,2.03
2023-08-04T00:16:43.575Z,2.70
2023-08-04T00:19:10.882Z,1.52
2023-08-04T00:21:38.286Z,3.05
2023-08-04T00:24:05.815Z,2.40
2023-08-04T00:26:33.506Z,5.03
2023-08-04T00:29:00.864Z,4.00
2023-08-04T00:31:28.296Z,1.10
2023-08-04T00:33:56.416Z,5.57
2023-08-04T00:36:23.998Z,3.50
2023-08-04T00:38:51.372Z,3.13
2023-08-04T00:41:18.762Z,2.50
2023-08-04T00:43:46.060Z,4.40
2023-08-04T00:46:13.482Z,3.08
2023-08-04T00:48:40.903Z,4.63
2023-08-04T00:51:08.308Z,5.97
2023-08-04T00:53:35.744Z,1.52
2023-08-04T00:56:03.181Z,2.10
2023-08-04T00:58:31.168Z,2.13
2023-08-04T01:00:58.548Z,3.17
2023-08-04T01:03:26.383Z,3.60
2023-08-04T01:06:00.320Z,3.00
2023-08-04T01:08:32.492Z,3.20
2023-08-04T01:11:02.665Z,2.55
2023-08-04T01:13:31.126Z,2.55
2023-08-04T01:15:59.291Z,3.17
2023-08-04T01:18:26.674Z,4.60
2023-08-04T01:20:54.294Z,1.27
2023-08-04T01:23:21.787Z,1.20
2023-08-04T01:25:49.545Z,2.45
2023-08-04T01:28:17.659Z,2.55
2023-08-04T01:30:46.611Z,1.92
2023-08-04T01:33:14.988Z,1.40
2023-08-04T01:35:43.637Z,4.47
2023-08-04T01:38:14.312Z,2.47
2023-08-04T01:40:41.784Z,2.97
2023-08-04T01:43:09.561Z,1.98
2023-08-04T01:45:36.960Z,1.27
2023-08-04T01:48:04.453Z,1.65
2023-08-04T01:50:31.888Z,2.45
2023-08-04T01:53:00.106Z,2.30
2023-08-04T01:55:27.449Z,2.13
2023-08-04T01:57:54.778Z,1.20
2023-08-04T02:00:22.190Z,2.67
2023-08-04T02:02:49.599Z,1.27
2023-08-04T02:05:17.293Z,1.83
2023-08-04T02:07:44.844Z,1.58
2023-08-04T02:10:12.246Z,5.82
2023-08-04T02:12:39.646Z,2.78
2023-08-04T02:15:07.274Z,1.45
2023-08-04T02:17:37.765Z,1.92
2023-08-04T02:20:06.228Z,3.97
2023-08-04T02:22:33.635Z,3.72
2023-08-04T02:25:01.081Z,1.45
2023-08-04T02:27:28.573Z,3.22
2023-08-04T02:29:55.957Z,1.55
2023-08-04T02:32:23.547Z,4.97
2023-08-04T02:34:52.427Z,1.83
2023-08-04T02:37:19.950Z,2.90
2023-08-04T02:39:47.451Z,2.25
2023-08-04T02:42:14.799Z,2.50
2023-08-04T02:44:42.838Z,1.98
2023-08-04T02:47:10.165Z,2.53
2023-08-04T02:49:39.174Z,3.78
2023-08-04T02:52:10.030Z,1.92
2023-08-04T02:54:37.454Z,2.33
2023-08-04T02:57:04.951Z,1.50
2023-08-04T02:59:32.426Z,4.10
2023-08-04T03:01:59.782Z,2.92
2023-08-04T03:04:27.174Z,3.08
2023-08-04T03:06:54.537Z,3.33
2023-08-04T03:09:22.042Z,1.55
2023-08-04T03:11:49.422Z,1.95
2023-08-04T03:14:16.888Z,2.03
2023-08-04T03:16:44.262Z,1.63
2023-08-04T03:19:11.690Z,2.45
2023-08-04T03:21:39.046Z,2.80
2023-08-04T03:24:06.516Z,1.95
2023-08-04T03:26:33.902Z,2.92
2023-08-04T03:29:01.239Z,2.58
2023-08-04T03:31:29.061Z,2.58
2023-08-04T03:33:56.489Z,7.85
2023-08-04T03:36:23.935Z,4.35
2023-08-04T03:38:51.369Z,3.00
2023-08-04T03:41:18.857Z,5.47
2023-08-04T03:43:46.302Z,1.52
2023-08-04T03:46:13.774Z,2.00
2023-08-04T03:48:41.097Z,2.90
2023-08-04T03:51:08.447Z,2.65
2023-08-04T03:53:35.843Z,2.92
2023-08-04T03:56:03.159Z,11.07
2023-08-04T03:58:30.519Z,4.30
2023-08-04T04:00:58.031Z,3.17
2023-08-04T04:03:25.531Z,1.63
2023-08-04T04:05:52.914Z,2.13
2023-08-04T04:08:20.294Z,4.80
2023-08-04T04:10:49.218Z,1.80
2023-08-04T04:13:16.659Z,2.38
2023-08-04T04:15:44.064Z,4.70
2023-08-04T04:18:11.598Z,3.83
2023-08-04T04:20:38.974Z,4.50
2023-08-04T04:23:06.528Z,6.88
2023-08-04T04:25:33.855Z,2.22
2023-08-04T04:28:01.290Z,1.98
2023-08-04T04:30:28.613Z,3.78
2023-08-04T04:32:56.010Z,3.53
2023-08-04T04:35:23.386Z,1.88
2023-08-04T04:37:51.001Z,1.50
2023-08-04T04:40:18.387Z,2.75
2023-08-04T04:42:45.944Z,2.40
2023-08-04T04:45:13.376Z,2.90
2023-08-04T04:47:40.792Z,1.88
2023-08-04T04:50:08.319Z,2.95
2023-08-04T04:52:37.086Z,2.20
2023-08-04T04:55:05.165Z,2.22
2023-08-04T04:57:40.938Z,1.67
2023-08-04T05:00:09.044Z,2.53
2023-08-04T05:02:36.363Z,5.53
2023-08-04T05:05:04.293Z,2.45
2023-08-04T05:07:31.888Z,2.10
2023-08-04T05:09:59.252Z,4.15
2023-08-04T05:12:26.604Z,4.70
2023-08-04T05:14:53.996Z,2.60
2023-08-04T05:17:21.369Z,8.05
2023-08-04T05:19:48.738Z,3.45
2023-08-04T05:22:16.108Z,3.70
2023-08-04T05:24:43.992Z,3.80
2023-08-04T05:27:11.522Z,2.72
2023-08-04T05:29:38.936Z,3.10
2023-08-04T05:32:06.383Z,2.50
2023-08-04T05:34:33.892Z,4.07
2023-08-04T05:37:01.236Z,2.90
2023-08-04T05:39:28.552Z,5.22
2023-08-04T05:41:55.939Z,2.72
2023-08-04T05:44:23.836Z,4.15
2023-08-04T05:46:51.334Z,4.82
2023-08-04T05:49:19.520Z,4.03
2023-08-04T05:51:47.817Z,4.03
2023-08-04T05:54:16.666Z,3.95
2023-08-04T05:56:44.025Z,6.40
2023-08-04T05:59:11.392Z,3.47
2023-08-04T06:01:38.831Z,1.98
2023-08-04T06:04:06.405Z,3.95
2023-08-04T06:06:33.781Z,3.25
2023-08-04T06:09:01.270Z,4.28
2023-08-04T06:11:28.950Z,2.42
2023-08-04T06:13:56.658Z,4.78
2023-08-04T06:16:24.133Z,2.63
2023-08-04T06:18:51.557Z,4.07
2023-08-04T06:21:18.951Z,1.90
2023-08-04T06:23:49.357Z,1.90
2023-08-04T06:26:16.772Z,6.43
2023-08-04T06:28:44.096Z,3.35
2023-08-04T06:31:11.608Z,3.63
2023-08-04T06:33:39.607Z,4.80
2023-08-04T06:36:07.284Z,2.05
2023-08-04T06:38:34.679Z,2.67
2023-08-04T06:41:02.078Z,2.05
2023-08-04T06:43:29.450Z,1.38
2023-08-04T06:45:56.917Z,1.30
2023-08-04T06:48:25.392Z,2.33
2023-08-04T06:50:53.533Z,1.10
2023-08-04T06:53:20.952Z,1.45
2023-08-04T06:55:48.396Z,4.95
2023-08-04T06:58:15.942Z,2.22
2023-08-04T07:00:43.339Z,2.80
2023-08-04T07:03:13.227Z,6.63
2023-08-04T07:05:40.694Z,4.20
2023-08-04T07:08:08.004Z,1.42
2023-08-04T07:10:36.597Z,1.23
2023-08-04T07:13:04.058Z,1.33
2023-08-04T07:15:33.287Z,1.85
2023-08-04T07:18:00.710Z,2.25
2023-08-04T07:20:29.570Z,3.17
2023-08-04T07:22:56.907Z,0.80
2023-08-04T07:25:24.315Z,2.13
2023-08-04T07:27:51.975Z,1.77
2023-08-04T07:30:19.486Z,1.88
2023-08-04T07:32:46.996Z,1.58
2023-08-04T07:35:14.568Z,1.08
2023-08-04T07:37:42.751Z,1.83
2023-08-04T07:40:10.657Z,1.23
2023-08-04T07:42:38.219Z,1.10
2023-08-04T07:45:05.720Z,2.03
2023-08-04T07:47:33.191Z,1.38
2023-08-04T07:50:00.570Z,1.80
2023-08-04T07:52:28.016Z,2.05
2023-08-04T07:54:55.383Z,1.70
2023-08-04T07:57:22.794Z,1.05
2023-08-04T07:59:51.573Z,1.58
2023-08-04T08:02:19.080Z,1.27
2023-08-04T08:04:46.450Z,0.60
2023-08-04T08:07:13.780Z,1.30
2023-08-04T08:09:41.151Z,2.20
2023-08-04T08:12:08.865Z,0.60
2023-08-04T08:14:36.196Z,1.95
2023-08-04T08:17:03.665Z,0.98
2023-08-04T08:19:31.029Z,2.60
2023-08-04T08:21:58.482Z,1.08
2023-08-04T08:24:25.828Z,1.65
2023-08-04T08:26:53.204Z,1.25
2023-08-04T08:29:22.366Z,0.90
2023-08-04T08:31:50.386Z,0.75
2023-08-04T08:34:18.547Z,1.73
2023-08-04T08:36:46.053Z,2.83
2023-08-04T08:39:13.450Z,1.25
2023-08-04T08:41:40.902Z,1.00
2023-08-04T08:44:08.323Z,1.35
2023-08-04T08:46:35.797Z,1.58
2023-08-04T08:49:03.852Z,1.17
2023-08-04T08:51:31.396Z,0.70
2023-08-04T08:53:59.969Z,1.13
2023-08-04T08:56:27.778Z,0.75
2023-08-04T08:58:56.302Z,1.42
2023-08-04T09:01:23.924Z,0.93
2023-08-04T09:03:51.491Z,1.55
2023-08-04T09:06:18.829Z,0.85
2023-08-04T09:08:46.256Z,1.08
2023-08-04T09:11:13.767Z,0.50
2023-08-04T09:13:43.349Z,2.60
2023-08-04T09:16:13.487Z,0.77
2023-08-04T09:18:41.492Z,1.67
2023-08-04T09:21:08.908Z,0.50
2023-08-04T09:23:42.923Z,0.80
2023-08-04T09:26:10.523Z,0.60
2023-08-04T09:28:38.100Z,2.00
2023-08-04T09:31:13.301Z,0.50
2023-08-04T09:33:42.908Z,0.88
2023-08-04T09:36:11.127Z,0.82
2023-08-04T09:38:39.030Z,0.80
2023-08-04T09:41:07.533Z,2.03
2023-08-04T09:43:35.118Z,1.52
2023-08-04T09:46:09.732Z,0.63
2023-08-04T09:48:38.740Z,6.18
2023-08-04T09:51:10.209Z,2.40
2023-08-04T09:53:47.962Z,0.50
2023-08-04T09:56:16.734Z,0.77
2023-08-04T09:58:44.474Z,0.50
2023-08-04T10:01:12.384Z,0.43
2023-08-04T10:03:41.743Z,0.60
2023-08-04T10:06:10.596Z,4.43
2023-08-04T10:08:43.188Z,2.38
2023-08-04T10:11:11.096Z,0.95
2023-08-04T10:13:42.989Z,0.43
2023-08-04T10:16:11.353Z,0.45
2023-08-04T10:18:47.964Z,2.35
2023-08-04T10:21:15.565Z,1.00
2023-08-04T10:23:43.004Z,2.38
2023-08-04T10:26:12.344Z,2.25
2023-08-04T10:28:58.648Z,1.50
2023-08-04T10:31:41.065Z,0.63
2023-08-04T10:34:17.550Z,0.65
2023-08-04T10:36:55.099Z,2.05
2023-08-04T10:39:36.401Z,1.85
2023-08-04T10:42:23.397Z,2.05
2023-08-04T10:44:50.872Z,2.35
2023-08-04T10:47:30.171Z,3.13
2023-08-04T10:50:01.454Z,0.50
2023-08-04T10:52:31.017Z,1.73
2023-08-04T10:55:00.072Z,0.93
2023-08-04T10:57:29.684Z,0.70
2023-08-04T10:59:57.055Z,1.58
2023-08-04T11:02:24.984Z,1.58
2023-08-04T11:04:53.108Z,0.55
2023-08-04T11:07:21.294Z,0.47
2023-08-04T11:09:49.198Z,1.10
2023-08-04T11:12:17.356Z,0.73
2023-08-04T11:14:45.082Z,0.55
2023-08-04T11:17:15.975Z,0.55
2023-08-04T11:19:47.291Z,1.63
2023-08-04T11:22:15.814Z,2.35
2023-08-04T11:24:43.705Z,0.65
2023-08-04T11:27:12.321Z,2.83
2023-08-04T11:29:40.178Z,2.28
2023-08-04T11:32:25.868Z,1.67
2023-08-04T11:34:57.565Z,0.57
2023-08-04T11:39:52.389Z,0.40
2023-08-04T11:42:19.806Z,1.15
2023-08-04T11:44:47.360Z,0.50
2023-08-04T11:47:18.437Z,1.13
2023-08-04T11:49:46.003Z,0.82
2023-08-04T11:52:15.658Z,0.82
2023-08-04T11:54:54.227Z,1.70
2023-08-04T11:57:22.206Z,1.02
2023-08-04T11:59:50.054Z,0.82
2023-08-04T12:02:17.699Z,1.02
2023-08-04T12:04:45.688Z,1.00
2023-08-04T12:07:16.898Z,1.90
2023-08-04T12:09:49.995Z,0.80
2023-08-04T12:12:17.407Z,1.10
2023-08-04T12:15:01.840Z,0.50
2023-08-04T12:17:36.924Z,0.52
2023-08-04T12:20:06.019Z,1.38
2023-08-04T12:22:40.172Z,0.68
2023-08-04T12:25:08.142Z,0.82
2023-08-04T12:27:36.258Z,1.42
2023-08-04T12:30:03.644Z,0.57
2023-08-04T12:32:34.486Z,0.47
2023-08-04T12:35:02.135Z,1.75
2023-08-04T12:37:29.531Z,0.63
2023-08-04T12:39:57.720Z,0.73
2023-08-04T12:42:25.840Z,0.88
2023-08-04T12:44:53.402Z,0.75
2023-08-04T12:47:20.867Z,0.82
2023-08-04T12:49:48.441Z,1.80
2023-08-04T12:52:17.237Z,0.50
2023-08-04T12:54:45.021Z,1.23
2023-08-04T12:57:14.260Z,0.50
2023-08-04T12:59:41.699Z,0.70
2023-08-04T13:02:09.304Z,2.00
2023-08-04T13:04:37.004Z,0.50
2023-08-04T13:07:04.643Z,1.45
2023-08-04T13:09:32.105Z,0.60
2023-08-04T13:11:59.519Z,0.95
2023-08-04T13:14:26.973Z,0.57
2023-08-04T13:16:54.332Z,0.43
2023-08-04T13:19:21.805Z,0.73
2023-08-04T13:21:50.270Z,0.75
2023-08-04T13:24:18.552Z,2.50
2023-08-04T13:26:46.123Z,0.40
2023-08-04T13:29:17.068Z,0.47
2023-08-04T13:31:48.102Z,0.65
2023-08-04T13:34:15.755Z,1.05
2023-08-04T13:36:44.421Z,0.50
2023-08-04T13:39:11.884Z,1.15
2023-08-04T13:41:39.977Z,0.82
2023-08-04T13:44:07.385Z,0.88
2023-08-04T13:46:34.816Z,3.25
2023-08-04T13:49:02.231Z,1.25
2023-08-04T13:51:29.683Z,0.50
2023-08-04T13:53:57.280Z,0.57
2023-08-04T13:56:24.832Z,0.43
2023-08-04T13:58:53.123Z,0.80
2023-08-04T14:01:20.707Z,1.73
2023-08-04T14:03:48.364Z,0.70
2023-08-04T14:06:16.340Z,1.00
2023-08-04T14:08:46.861Z,0.50
2023-08-04T14:11:14.758Z,0.50
2023-08-04T14:13:42.144Z,0.60
2023-08-04T14:16:13.396Z,1.02
2023-08-04T14:18:41.310Z,0.98
2023-08-04T14:21:09.258Z,0.68
2023-08-04T14:23:37.016Z,0.63
2023-08-04T14:26:04.556Z,0.40
2023-08-04T14:28:32.242Z,0.70
2023-08-04T14:31:00.207Z,0.60
2023-08-04T14:33:27.750Z,0.57
2023-08-04T14:35:58.421Z,1.30
2023-08-04T14:38:25.864Z,0.57
2023-08-04T14:40:53.234Z,0.63
2023-08-04T14:43:21.202Z,0.40
2023-08-04T14:45:48.702Z,1.05
2023-08-04T14:48:16.622Z,0.60
2023-08-04T14:50:45.501Z,0.40
2023-08-04T14:53:16.395Z,1.70
2023-08-04T14:55:46.111Z,1.00
2023-08-04T14:58:13.821Z,0.60
2023-08-04T15:00:41.255Z,0.60
2023-08-04T15:03:08.984Z,0.50
2023-08-04T15:05:36.446Z,0.50
2023-08-04T15:08:03.985Z,0.47
2023-08-04T15:10:31.505Z,0.50
2023-08-04T15:13:00.489Z,0.60
2023-08-04T15:15:27.910Z,0.50
2023-08-04T15:17:57.515Z,0.77
2023-08-04T15:20:25.080Z,1.33
2023-08-04T15:22:52.600Z,1.23
2023-08-04T15:25:20.318Z,0.90
2023-08-04T15:27:47.763Z,0.77
2023-08-04T15:30:15.237Z,1.15
2023-08-04T15:32:43.337Z,0.68
2023-08-04T15:35:11.579Z,1.23
2023-08-04T15:37:39.029Z,1.17
2023-08-04T15:40:06.827Z,2.42
2023-08-04T15:42:35.114Z,0.60
2023-08-04T15:45:03.391Z,1.77
2023-08-04T15:47:31.043Z,0.85
2023-08-04T15:49:58.764Z,0.98
2023-08-04T15:52:26.215Z,0.70
2023-08-04T15:55:06.719Z,1.48
2023-08-04T15:57:39.830Z,0.57
2023-08-04T16:00:07.712Z,0.80
2023-08-04T16:02:36.504Z,1.00
2023-08-04T16:05:03.943Z,0.95
2023-08-04T16:07:31.317Z,1.35
2023-08-04T16:10:01.139Z,0.93
2023-08-04T16:12:29.968Z,0.70
2023-08-04T16:14:57.359Z,0.50
2023-08-04T16:17:24.783Z,1.30
2023-08-04T16:19:52.142Z,0.93
2023-08-04T16:22:19.746Z,1.40
2023-08-04T16:24:47.952Z,2.83
2023-08-04T16:27:15.643Z,1.63
2023-08-04T16:29:43.026Z,0.60
2023-08-04T16:32:10.577Z,0.60
2023-08-04T16:34:38.030Z,0.50
2023-08-04T16:37:05.638Z,3.35
2023-08-04T16:39:32.978Z,1.10
2023-08-04T16:42:00.755Z,1.25
2023-08-04T16:44:28.105Z,1.75
2023-08-04T16:46:55.544Z,0.90
2023-08-04T16:49:23.028Z,1.75
2023-08-04T16:51:50.539Z,2.85
2023-08-04T16:54:17.907Z,10.02
2023-08-04T16:56:45.240Z,9.68
2023-08-04T16:59:12.657Z,17.23
2023-08-04T17:01:40.371Z,26.08
2023-08-04T17:04:07.887Z,31.65
2023-08-04T17:06:35.427Z,44.03
2023-08-04T17:09:04.065Z,27.27
2023-08-04T17:11:31.490Z,33.53
2023-08-04T17:13:58.847Z,24.40
2023-08-04T17:16:26.221Z,8.48
2023-08-04T17:18:53.774Z,5.97
2023-08-04T17:21:21.300Z,4.53
2023-08-04T17:23:48.725Z,1.88
2023-08-04T17:26:16.106Z,3.15
2023-08-04T17:28:43.556Z,5.97
2023-08-04T17:31:11.068Z,2.38
2023-08-04T17:33:38.533Z,1.20
2023-08-04T17:36:06.325Z,1.15
2023-08-04T17:38:33.866Z,1.50
2023-08-04T17:41:01.954Z,6.38
2023-08-04T17:43:29.345Z,1.75
2023-08-04T17:45:56.933Z,1.48
2023-08-04T17:48:24.524Z,0.90
2023-08-04T17:50:52.010Z,2.33
2023-08-04T17:53:24.863Z,4.03
2023-08-04T17:55:53.123Z,1.60
2023-08-04T17:58:21.397Z,1.70
2023-08-04T18:00:49.638Z,0.95
2023-08-04T18:03:17.195Z,1.63
2023-08-04T18:05:45.054Z,1.15
2023-08-04T18:08:12.529Z,0.77
2023-08-04T18:10:40.883Z,1.27
2023-08-04T18:13:09.794Z,1.13
2023-08-04T18:15:38.001Z,1.55
2023-08-04T18:18:06.471Z,1.05
2023-08-04T18:20:36.771Z,0.85
2023-08-04T18:23:04.203Z,1.85
2023-08-04T18:25:31.809Z,5.20
2023-08-04T18:28:00.592Z,1.80
2023-08-04T18:30:28.046Z,2.65
2023-08-04T18:32:55.711Z,3.22
2023-08-04T18:35:23.177Z,4.32
2023-08-04T18:37:51.498Z,3.97
2023-08-04T18:40:19.441Z,3.42
2023-08-04T18:42:46.935Z,5.47
2023-08-04T18:45:14.961Z,3.35
2023-08-04T18:47:43.193Z,3.25
2023-08-04T18:50:11.321Z,4.65
2023-08-04T18:52:42.308Z,3.40
2023-08-04T18:55:10.043Z,3.13
2023-08-04T18:57:37.790Z,2.90
2023-08-04T19:00:13.660Z,3.13
2023-08-04T19:02:41.528Z,2.15
2023-08-04T19:05:09.199Z,2.50
2023-08-04T19:07:36.621Z,1.83
2023-08-04T19:10:08.233Z,2.65
2023-08-04T19:12:36.733Z,2.55
2023-08-04T19:15:04.468Z,2.13
2023-08-04T19:17:32.140Z,2.50
2023-08-04T19:19:59.536Z,2.35
2023-08-04T19:22:26.933Z,2.83
2023-08-04T19:24:54.282Z,2.47
2023-08-04T19:27:21.669Z,1.70
2023-08-04T19:29:50.952Z,2.97
2023-08-04T19:32:18.306Z,1.60
2023-08-04T19:34:45.738Z,3.20
2023-08-04T19:37:13.256Z,2.00
2023-08-04T19:39:40.626Z,1.60
2023-08-04T19:42:11.384Z,4.10
2023-08-04T19:44:39.112Z,1.67
2023-08-04T19:47:09.341Z,1.55
2023-08-04T19:49:37.013Z,3.47
2023-08-04T19:52:06.112Z,3.83
2023-08-04T19:54:34.252Z,2.72
2023-08-04T19:57:01.728Z,2.67
2023-08-04T19:59:29.324Z,2.15
2023-08-04T20:01:56.706Z,4.13
2023-08-04T20:04:24.238Z,2.90
2023-08-04T20:06:52.388Z,3.50
2023-08-04T20:09:19.920Z,3.47
2023-08-04T20:11:47.301Z,1.23
2023-08-04T20:14:14.683Z,4.85
2023-08-04T20:16:42.085Z,4.20
2023-08-04T20:19:09.613Z,1.40
2023-08-04T20:21:40.506Z,3.33
2023-08-04T20:24:08.055Z,3.35
2023-08-04T20:26:35.584Z,2.65
2023-08-04T20:29:03.154Z,2.47
2023-08-04T20:31:30.685Z,2.08
2023-08-04T20:34:01.982Z,1.50
2023-08-04T20:36:36.155Z,4.05
2023-08-04T20:39:03.948Z,1.42
2023-08-04T20:41:31.562Z,5.15
2023-08-04T20:43:58.918Z,4.60
2023-08-04T20:46:26.395Z,1.23
2023-08-04T20:48:55.003Z,3.72
2023-08-04T20:51:22.734Z,2.05
2023-08-04T20:53:50.995Z,1.58
2023-08-04T20:56:19.691Z,2.25
2023-08-04T20:58:48.062Z,1.65
2023-08-04T21:01:15.581Z,2.72
2023-08-04T21:03:43.059Z,4.07
2023-08-04T21:06:10.517Z,2.55
2023-08-04T21:08:38.522Z,4.55
2023-08-04T21:11:06.022Z,5.22
2023-08-04T21:13:33.690Z,1.50
2023-08-04T21:16:01.200Z,3.42
2023-08-04T21:18:28.895Z,1.95
2023-08-04T21:20:57.874Z,3.08
2023-08-04T21:23:26.346Z,2.95
2023-08-04T21:25:54.139Z,2.42
2023-08-04T21:28:22.093Z,1.05
2023-08-04T21:30:53.525Z,1.58
2023-08-04T21:33:24.488Z,1.05
2023-08-04T21:35:59.088Z,0.98
2023-08-04T21:38:26.693Z,1.50
2023-08-04T21:40:54.154Z,6.95
2023-08-04T21:43:21.732Z,1.75
2023-08-04T21:45:49.176Z,1.23
2023-08-04T21:48:16.693Z,2.47
2023-08-04T21:50:44.076Z,5.70
2023-08-04T21:53:11.519Z,3.65
2023-08-04T21:55:39.208Z,4.57
2023-08-04T21:58:06.684Z,3.33
2023-08-04T22:00:34.174Z,4.43
2023-08-04T22:03:01.717Z,4.03
2023-08-04T22:05:29.319Z,3.55
2023-08-04T22:07:56.808Z,3.97
2023-08-04T22:10:24.325Z,1.92
2023-08-04T22:12:54.771Z,4.43
2023-08-04T22:15:23.140Z,5.13
2023-08-04T22:17:50.912Z,1.35
2023-08-04T22:20:19.498Z,1.58
2023-08-04T22:22:47.132Z,2.67
2023-08-04T22:25:14.742Z,2.80
2023-08-04T22:27:42.254Z,3.17
2023-08-04T22:30:09.851Z,1.13
2023-08-04T22:32:38.738Z,2.60
2023-08-04T22:35:08.145Z,1.95
2023-08-04T22:37:35.942Z,1.65
2023-08-04T22:40:03.981Z,2.03
2023-08-04T22:42:34.197Z,2.85
2023-08-04T22:45:03.748Z,3.90
2023-08-04T22:47:31.403Z,3.25
2023-08-04T22:49:58.852Z,1.63
2023-08-04T22:52:26.673Z,1.15
2023-08-04T22:54:55.456Z,1.42
2023-08-04T22:57:22.997Z,3.58
2023-08-04T22:59:50.545Z,2.70
2023-08-04T23:02:19.434Z,1.52
2023-08-04T23:04:46.826Z,1.75
2023-08-04T23:07:14.221Z,4.95
2023-08-04T23:09:45.027Z,3.03
2023-08-04T23:12:13.000Z,4.18
2023-08-04T23:14:40.371Z,1.67
2023-08-04T23:17:08.236Z,1.60
2023-08-04T23:19:35.627Z,1.80
2023-08-04T23:22:02.947Z,5.30
2023-08-04T23:24:30.717Z,3.92
2023-08-04T23:26:58.106Z,4.60
2023-08-04T23:29:25.452Z,1.55
2023-08-04T23:31:53.125Z,5.68
2023-08-04T23:34:20.489Z,3.45
2023-08-04T23:36:49.462Z,2.22
2023-08-04T23:39:17.093Z,2.83
2023-08-04T23:41:44.484Z,3.45
2023-08-04T23:44:11.852Z,2.88
2023-08-04T23:46:39.241Z,2.67
2023-08-04T23:49:06.699Z,4.03
2023-08-04T23:51:34.074Z,2.55
2023-08-04T23:54:03.841Z,3.92
2023-08-04T23:56:31.436Z,2.90
2023-08-04T23:58:59.283Z,3.45
